FW4486 Weather Reports


time (UTC)temp
F
wind
direction
speed
knots
gust
knots
rain 1hr
in
rain 24hr
in
rain mn
in
humidity
%
barometer
mb
20260505153033 78 2.6 8.7 0.00 0.00 0.00 57 1019.9
20260505152530 79 2.6 10.4 0.00 0.00 0.00 58 1020.0
20260505152031 78 3.5 10.4 0.00 0.00 0.00 58 1020.1
20260505151528 77 1.7 7.8 0.00 0.00 0.00 59 1020.1
20260505151030 78 4.3 9.6 0.00 0.00 0.00 59 1020.1
20260505150529 78 4.3 11.3 0.00 0.00 0.00 59 1020.1
20260505140517 73 1.7 5.2 0.00 0.00 0.00 68 1020.1
20260505124545 64 0.0 2.6 0.00 0.00 0.00 82 1020.1
20260505124043 63 0.0 2.6 0.00 0.00 0.00 83 1020.0
20260505123542 63 0.0 0.9 0.00 0.00 0.00 82 1020.0
20260505123103 62 0.0 1.7 0.00 0.00 0.00 85 1020.1
20260505122538 61 0.0 2.6 0.00 0.00 0.00 85 1020.0
20260505122036 61 0.0 2.6 0.00 0.00 0.00 86 1019.9
20260505121536 60 0.0 1.7 0.00 0.00 0.00 87 1019.9
20260505121038 59 0.0 0.0 0.00 0.00 0.00 88 1019.9
20260505120533 58 0.0 0.9 0.00 0.00 0.00 89 1019.9
20260505120046 57 0.0 0.9 0.00 0.00 0.00 90 1019.9
20260505115530 56 0.0 0.0 0.00 0.00 0.00 92 1019.9
20260505115030 55 0.0 0.0 0.00 0.00 0.00 93 1019.8
20260505114536 54 0.0 0.0 0.00 0.00 0.00 94 1019.8
20260505114026 54 0.0 0.0 0.00 0.00 0.00 93 1019.6
20260505113525 53 0.0 0.9 0.00 0.00 0.00 93 1019.5
20260505113024 53 0.0 0.9 0.00 0.00 0.00 94 1019.4
20260505112524 53 0.0 0.0 0.00 0.00 0.00 94 1019.3
20260505112023 53 0.0 0.0 0.00 0.00 0.00 94 1019.4
20260505111522 53 0.0 0.0 0.00 0.00 0.00 93 1019.4
20260505111021 53 0.0 0.0 0.00 0.00 0.00 94 1019.4
20260505110522 53 0.0 0.0 0.00 0.00 0.00 94 1019.3
20260505102014 53 0.0 0.0 0.00 0.00 0.00 94 1018.8
20260505101513 53 0.0 0.0 0.00 0.00 0.00 94 1018.9
20260505101012 52 0.0 0.0 0.00 0.00 0.00 93 1018.9
20260505100512 52 0.0 0.0 0.00 0.00 0.00 93 1019.0
20260505100011 52 0.0 0.0 0.00 0.00 0.00 92 1019.0
20260505095510 52 0.0 0.0 0.00 0.00 0.00 92 1019.1
20260505095012 53 0.0 0.0 0.00 0.00 0.00 92 1019.1
20260505094508 53 0.0 0.0 0.00 0.00 0.00 92 1019.1
20260505094006 53 0.0 0.0 0.00 0.00 0.00 92 1019.1
20260505093508 53 0.0 0.0 0.00 0.00 0.00 92 1019.3
20260505093005 53 0.0 0.0 0.00 0.00 0.00 92 1019.2
20260505092505 53 0.0 0.0 0.00 0.00 0.00 92 1019.2
20260505092006 53 0.0 0.0 0.00 0.00 0.00 91 1019.1
20260505091502 54 0.0 0.0 0.00 0.00 0.00 91 1019.0
20260505091003 54 0.0 0.0 0.00 0.00 0.00 91 1018.9
20260505090502 54 0.0 0.0 0.00 0.00 0.00 91 1018.8
20260505090111 54 0.0 0.0 0.00 0.00 0.00 91 1018.9
20260505085605 54 0.0 0.0 0.00 0.00 0.00 91 1018.9
20260505085058 54 0.0 0.0 0.00 0.00 0.00 91 1018.8
20260505084559 54 0.0 0.0 0.00 0.00 0.00 91 1018.8
20260505084058 54 0.0 0.0 0.00 0.00 0.00 91 1018.7
20260505083555 54 0.0 0.0 0.00 0.00 0.00 90 1018.6
20260505083107 54 0.0 0.0 0.00 0.00 0.00 90 1018.7
20260505082554 54 0.0 0.0 0.00 0.00 0.00 89 1018.6
20260505082053 54 0.0 0.0 0.00 0.00 0.00 89 1018.7
20260505081553 55 0.0 0.0 0.00 0.00 0.00 90 1018.7
20260505081052 55 0.0 0.0 0.00 0.00 0.00 89 1018.7
20260505080549 55 0.0 0.0 0.00 0.00 0.00 89 1018.7
20260505080054 55 0.0 0.0 0.00 0.00 0.00 88 1018.7
20260505075547 55 0.0 0.0 0.00 0.00 0.00 88 1018.6
20260505075047 55 0.0 0.0 0.00 0.00 0.00 88 1018.7
20260505074546 55 0.0 0.0 0.00 0.00 0.00 88 1018.7
20260505074049 55 0.0 0.0 0.00 0.00 0.00 88 1018.6
20260505073546 55 0.0 0.0 0.00 0.00 0.00 87 1018.6
20260505073054 55 0.0 0.0 0.00 0.00 0.00 88 1018.7
20260505072545 55 0.0 0.0 0.00 0.00 0.00 87 1018.8
20260505072040 55 0.0 0.0 0.00 0.00 0.00 87 1018.7
20260505071540 56 0.0 0.0 0.00 0.00 0.00 87 1018.8
20260505071038 56 0.0 0.0 0.00 0.00 0.00 86 1018.8
20260505070537 56 0.0 0.0 0.00 0.00 0.00 86 1018.6
20260505070040 56 0.0 0.0 0.00 0.00 0.00 85 1018.7
20260505065535 56 0.0 0.0 0.00 0.00 0.00 84 1018.8
20260505065034 57 0.0 0.0 0.00 0.00 0.00 84 1018.8
20260505064532 57 0.0 0.9 0.00 0.00 0.00 84 1018.8
20260505064030 57 0.0 0.9 0.00 0.00 0.00 84 1018.7
20260505063529 57 0.0 0.0 0.00 0.00 0.00 83 1018.9
20260505063028 57 0.0 0.0 0.00 0.00 0.00 83 1018.9
20260505062526 58 0.0 0.0 0.00 0.00 0.00 83 1018.9
20260505062127 58 0.0 0.0 0.00 0.00 0.00 82 1018.9
20260505061524 58 0.0 0.0 0.00 0.00 0.00 81 1019.0
20260505061022 58 0.0 0.0 0.00 0.00 0.00 80 1018.9
20260505060520 59 0.0 0.0 0.00 0.00 0.00 79 1019.1
20260505060024 59 0.0 0.9 0.00 0.00 0.00 79 1019.1
20260505055522 59 0.0 0.9 0.00 0.00 0.00 78 1019.1
20260505055018 60 0.0 1.7 0.00 0.00 0.00 78 1019.1
20260505054521 60 0.0 2.6 0.00 0.00 0.00 78 1019.1
20260505054017 60 0.0 2.6 0.00 0.00 0.00 78 1019.1
20260505053515 60 0.0 1.7 0.00 0.00 0.00 77 1019.1
20260505053115 60 0.0 1.7 0.00 0.00 0.00 77 1019.0
20260505052520 59 0.0 0.9 0.00 0.00 0.00 77 1019.1
20260505052013 60 0.0 0.9 0.00 0.00 0.00 77 1019.0
20260505051517 59 0.0 0.9 0.00 0.00 0.00 76 1019.1
20260505051012 59 0.0 1.7 0.00 0.00 0.00 76 1019.2
20260505050516 59 0.0 1.7 0.00 0.00 0.00 76 1019.2
20260505041501 60 0.0 1.7 0.00 0.00 0.00 71 1019.4
20260505041100 60 0.0 1.7 0.00 0.00 0.00 71 1019.4
20260505040603 60 0.0 0.9 0.00 0.00 0.00 71 1019.4
20260505035602 61 0.0 0.9 0.00 0.00 0.00 70 1019.3
20260505035056 61 0.0 0.9 0.00 0.00 0.00 70 1019.4
20260505034556 61 0.0 0.9 0.00 0.00 0.00 70 1019.5
20260505034056 61 0.0 0.0 0.00 0.00 0.00 69 1019.5
20260505033556 61 0.0 0.9 0.00 0.00 0.00 69 1019.5
20260505033056 61 0.0 0.9 0.00 0.00 0.00 69 1019.4
20260505032554 61 0.0 0.9 0.00 0.00 0.00 68 1019.5
20260505032057 62 0.0 1.7 0.00 0.00 0.00 68 1019.5
20260505031556 62 0.0 0.9 0.00 0.00 0.00 68 1019.5
20260505031053 62 0.0 0.9 0.00 0.00 0.00 67 1019.4
20260505030553 62 0.0 1.7 0.00 0.00 0.00 66 1019.3
20260505030052 62 0.0 1.7 0.00 0.00 0.00 65 1019.3
20260505025552 62 0.0 0.9 0.00 0.00 0.00 66 1019.3
20260505025050 62 0.0 0.9 0.00 0.00 0.00 67 1019.3
20260505024550 62 0.0 0.9 0.00 0.00 0.00 64 1019.1
20260505024050 62 0.0 0.0 0.00 0.00 0.00 65 1019.1
20260505023549 62 0.0 0.0 0.00 0.00 0.00 67 1019.0
20260505023052 62 0.0 0.0 0.00 0.00 0.00 65 1018.9
20260505022548 62 0.0 0.0 0.00 0.00 0.00 67 1018.8
20260505022048 63 0.0 0.0 0.00 0.00 0.00 66 1018.9
20260505021547 63 0.0 0.0 0.00 0.00 0.00 62 1018.7
20260505021048 64 0.0 0.0 0.00 0.00 0.00 63 1018.7
20260505020546 64 0.0 0.0 0.00 0.00 0.00 61 1018.6
20260505020045 64 0.0 0.0 0.00 0.00 0.00 61 1018.6
20260505015545 64 0.0 0.0 0.00 0.00 0.00 62 1018.7
20260505015044 65 0.0 0.0 0.00 0.00 0.00 59 1018.6
20260505014601 66 0.0 0.0 0.00 0.00 0.00 56 1018.5
20260505014043 66 0.0 0.9 0.00 0.00 0.00 55 1018.4
20260505013642 67 0.0 0.9 0.00 0.00 0.00 55 1018.4
20260505013042 68 0.0 0.0 0.00 0.00 0.00 50 1018.4
20260505012540 68 0.0 0.0 0.00 0.00 0.00 50 1018.3
20260505012040 68 0.0 0.9 0.00 0.00 0.00 49 1018.3
20260505011539 69 0.0 0.9 0.00 0.00 0.00 49 1018.3
20260505011038 69 0.0 0.9 0.00 0.00 0.00 51 1018.3
20260505010538 69 0.0 0.9 0.00 0.00 0.00 48 1018.2
20260505010038 70 0.0 0.9 0.00 0.00 0.00 49 1018.1
20260505005538 70 0.0 1.7 0.00 0.00 0.00 47 1018.1
20260505005039 70 0.0 1.7 0.00 0.00 0.00 47 1018.1
20260505004542 71 0.0 1.7 0.00 0.00 0.00 47 1018.0
20260505004035 71 0.0 0.9 0.00 0.00 0.00 46 1018.0
20260505003534 71 0.0 0.9 0.00 0.00 0.00 45 1018.1
20260505003034 72 0.0 0.9 0.00 0.00 0.00 44 1017.9
20260505002537 72 0.0 1.7 0.00 0.00 0.00 43 1017.9
20260505002034 73 0.0 1.7 0.00 0.00 0.00 44 1017.9
20260505001533 74 0.0 0.9 0.00 0.00 0.00 43 1017.9
20260505001032 74 0.0 0.9 0.00 0.00 0.00 42 1017.8
20260505000534 75 0.0 0.9 0.00 0.00 0.00 40 1017.9
20260505000035 76 0.0 0.9 0.00 0.00 0.00 40 1017.9
20260504235531 76 0.0 0.9 0.00 0.00 0.00 40 1017.8
20260504235030 76 0.0 0.9 0.00 0.00 0.00 38 1017.9
20260504234533 76 0.0 0.9 0.00 0.00 0.00 38 1017.8
20260504234027 76 0.0 2.6 0.00 0.00 0.00 38 1017.8
20260504233528 76 0.0 2.6 0.00 0.00 0.00 38 1017.8
20260504233031 77 0.0 2.6 0.00 0.00 0.00 37 1017.7
20260504232527 77 0.0 4.3 0.00 0.00 0.00 37 1017.7
20260504232029 77 1.7 4.3 0.00 0.00 0.00 36 1017.7
20260504231528 78 0.9 5.2 0.00 0.00 0.00 36 1017.7
20260504231026 79 1.7 5.2 0.00 0.00 0.00 35 1017.6
20260504230526 79 0.9 7.0 0.00 0.00 0.00 34 1017.5
20260504230025 80 3.5 7.0 0.00 0.00 0.00 32 1017.6
20260504225527 80 2.6 6.1 0.00 0.00 0.00 33 1017.5
20260504225024 80 2.6 5.2 0.00 0.00 0.00 33 1017.6
20260504224523 80 2.6 6.1 0.00 0.00 0.00 32 1017.5
20260504224023 80 1.7 6.1 0.00 0.00 0.00 32 1017.6
20260504223522 82 1.7 6.1 0.00 0.00 0.00 31 1017.6
20260504223022 81 2.6 7.8 0.00 0.00 0.00 30 1017.6
20260504222621 81 3.5 7.8 0.00 0.00 0.00 30 1017.5
20260504222019 81 1.7 6.1 0.00 0.00 0.00 32 1017.6
20260504221521 81 2.6 7.0 0.00 0.00 0.00 31 1017.6
20260504221018 81 2.6 7.0 0.00 0.00 0.00 31 1017.6
20260504220517 82 2.6 9.6 0.00 0.00 0.00 30 1017.6
20260504220017 82 4.3 9.6 0.00 0.00 0.00 31 1017.5
20260504215515 82 2.6 7.8 0.00 0.00 0.00 31 1017.5
20260504215017 82 2.6 7.8 0.00 0.00 0.00 31 1017.5
20260504214515 81 3.5 7.0 0.00 0.00 0.00 32 1017.5
20260504214017 81 2.6 9.6 0.00 0.00 0.00 33 1017.6
20260504213514 82 4.3 9.6 0.00 0.00 0.00 32 1017.6
20260504213034 82 1.7 6.1 0.00 0.00 0.00 31 1017.6
20260504212516 82 0.0 4.3 0.00 0.00 0.00 31 1017.6
20260504212012 82 0.9 7.0 0.00 0.00 0.00 30 1017.7
20260504211516 83 0.9 7.8 0.00 0.00 0.00 29 1017.7
20260504211012 83 2.6 7.0 0.00 0.00 0.00 29 1017.7
20260504210512 83 0.9 5.2 0.00 0.00 0.00 29 1017.8
20260504210008 83 0.0 5.2 0.00 0.00 0.00 29 1017.8
20260504205507 83 0.0 7.8 0.00 0.00 0.00 28 1017.9
20260504205006 83 1.7 7.8 0.00 0.00 0.00 29 1017.9
20260504204504 83 2.6 10.4 0.00 0.00 0.00 30 1018.0
20260504204002 83 4.3 10.4 0.00 0.00 0.00 30 1018.1
20260504203506 83 1.7 7.0 0.00 0.00 0.00 29 1018.2
20260504203003 83 2.6 8.7 0.00 0.00 0.00 29 1018.2
20260504202501 83 3.5 8.7 0.00 0.00 0.00 30 1018.2
20260504202100 84 1.7 7.0 0.00 0.00 0.00 29 1018.1
20260504201559 83 1.7 7.0 0.00 0.00 0.00 30 1018.3
20260504201101 83 3.5 6.1 0.00 0.00 0.00 30 1018.4
20260504200557 83 1.7 6.1 0.00 0.00 0.00 29 1018.4
20260504200057 82 1.7 5.2 0.00 0.00 0.00 29 1018.4
20260504195601 83 1.7 7.0 0.00 0.00 0.00 28 1018.6
20260504195059 83 1.7 7.0 0.00 0.00 0.00 29 1018.6
20260504194602 82 0.9 5.2 0.00 0.00 0.00 30 1018.6
20260504194051 80 0.9 5.2 0.00 0.00 0.00 34 1018.7
20260504193552 80 2.6 8.7 0.00 0.00 0.00 33 1018.8
20260504193058 80 0.9 8.7 0.00 0.00 0.00 33 1018.9
20260504192548 81 0.9 6.1 0.00 0.00 0.00 33 1018.9
20260504192047 80 2.6 7.8 0.00 0.00 0.00 33 1019.0
20260504191546 79 4.3 7.0 0.00 0.00 0.00 33 1019.0
20260504191045 80 0.9 4.3 0.00 0.00 0.00 32 1019.1
20260504190547 80 1.7 7.8 0.00 0.00 0.00 32 1019.2
20260504190043 81 2.6 7.8 0.00 0.00 0.00 31 1019.3
20260504185542 81 0.9 7.8 0.00 0.00 0.00 30 1019.3
20260504185040 80 1.7 7.8 0.00 0.00 0.00 32 1019.4
20260504184540 80 2.6 5.2 0.00 0.00 0.00 30 1019.6
20260504184039 81 0.0 3.5 0.00 0.00 0.00 32 1019.6
20260504183542 80 0.9 5.2 0.00 0.00 0.00 32 1019.7
20260504183037 81 0.0 5.2 0.00 0.00 0.00 29 1019.7
20260504182539 81 1.7 5.2 0.00 0.00 0.00 28 1019.8
20260504182034 81 0.0 5.2 0.00 0.00 0.00 28 1019.8
20260504181533 80 2.6 5.2 0.00 0.00 0.00 31 1019.8
20260504181032 79 0.0 8.7 0.00 0.00 0.00 32 1019.8
20260504180531 80 3.5 8.7 0.00 0.00 0.00 32 1019.7
20260504180028 79 2.6 7.8 0.00 0.00 0.00 33 1019.8
20260504175528 78 0.0 5.2 0.00 0.00 0.00 33 1019.8
20260504175027 78 2.6 5.2 0.00 0.00 0.00 34 1020.0
20260504174526 79 2.6 7.0 0.00 0.00 0.00 34 1020.0
20260504174025 78 3.5 7.0 0.00 0.00 0.00 36 1020.0
20260504173527 78 0.9 6.1 0.00 0.00 0.00 36 1020.0
20260504173034 78 2.6 5.2 0.00 0.00 0.00 36 1020.0
20260504172523 78 1.7 3.5 0.00 0.00 0.00 35 1020.1
20260504172022 78 0.9 7.0 0.00 0.00 0.00 34 1020.1
20260504171524 78 3.5 7.0 0.00 0.00 0.00 33 1020.1
20260504171024 77 1.7 7.0 0.00 0.00 0.00 36 1020.3
20260504170520 76 2.6 7.0 0.00 0.00 0.00 36 1020.3